createdAt,value
2017-04-12T00:00:40.761Z,0
2017-04-12T00:01:40.742Z,0
2017-04-12T00:02:40.721Z,0
2017-04-12T00:03:40.707Z,0
2017-04-12T00:04:40.681Z,0
2017-04-12T00:05:40.663Z,0
2017-04-12T00:06:40.642Z,0
2017-04-12T00:07:40.625Z,0
2017-04-12T00:08:40.599Z,0
2017-04-12T00:09:40.587Z,0
2017-04-12T00:10:40.259Z,0
2017-04-12T00:11:40.541Z,0
2017-04-12T00:12:40.521Z,0
2017-04-12T00:13:40.502Z,0
2017-04-12T00:14:40.486Z,0
2017-04-12T00:15:40.465Z,0
2017-04-12T00:16:40.445Z,0
2017-04-12T00:17:40.422Z,0
2017-04-12T00:18:40.400Z,0
2017-04-12T00:19:40.382Z,0
2017-04-12T00:20:40.360Z,0
2017-04-12T00:21:40.337Z,0
2017-04-12T00:22:40.320Z,0
2017-04-12T00:23:40.302Z,0
2017-04-12T00:24:40.281Z,0
2017-04-12T00:25:40.261Z,0
2017-04-12T00:26:40.241Z,0
2017-04-12T00:27:40.225Z,0
2017-04-12T00:28:39.903Z,0
2017-04-12T00:29:40.179Z,0
2017-04-12T00:30:39.860Z,0
2017-04-12T00:31:40.139Z,0
2017-04-12T00:32:40.128Z,0
2017-04-12T00:33:40.112Z,0
2017-04-12T00:34:40.089Z,0
2017-04-12T00:35:39.757Z,0
2017-04-12T00:36:40.039Z,0
2017-04-12T00:37:40.028Z,0
2017-04-12T00:38:40.021Z,0
2017-04-12T00:39:39.972Z,0
2017-04-12T00:40:39.967Z,0
2017-04-12T00:41:39.940Z,0
2017-04-12T00:42:39.923Z,0
2017-04-12T00:43:39.904Z,0
2017-04-12T00:44:39.880Z,0
2017-04-12T00:45:39.866Z,0
2017-04-12T00:46:39.837Z,0
2017-04-12T00:47:39.822Z,0
2017-04-12T00:48:39.805Z,0
2017-04-12T00:49:39.784Z,0
2017-04-12T00:50:39.768Z,0
2017-04-12T00:51:39.742Z,0
2017-04-12T00:52:39.722Z,0
2017-04-12T00:53:39.708Z,0
2017-04-12T00:54:39.693Z,0
2017-04-12T00:55:39.662Z,0
2017-04-12T00:56:39.639Z,0
2017-04-12T00:57:39.624Z,0
2017-04-12T00:58:39.614Z,0
2017-04-12T00:59:39.588Z,0
2017-04-12T01:00:39.566Z,0
2017-04-12T01:01:39.545Z,0
2017-04-12T01:02:39.532Z,0
2017-04-12T01:03:39.504Z,0
2017-04-12T01:04:39.523Z,0
2017-04-12T01:05:39.462Z,0
2017-04-12T01:06:39.451Z,0
2017-04-12T01:07:39.431Z,0
2017-04-12T01:08:39.418Z,0
2017-04-12T01:09:39.393Z,0
2017-04-12T01:10:39.069Z,0
2017-04-12T01:11:39.348Z,0
2017-04-12T01:12:39.333Z,0
2017-04-12T01:13:39.317Z,0
2017-04-12T01:14:39.290Z,0
2017-04-12T01:15:39.274Z,0
2017-04-12T01:16:39.249Z,0
2017-04-12T01:17:39.233Z,0
2017-04-12T01:18:39.215Z,0
2017-04-12T01:19:39.194Z,0
2017-04-12T01:20:39.176Z,0
2017-04-12T01:21:39.155Z,0
2017-04-12T01:22:39.139Z,0
2017-04-12T01:23:39.127Z,0
2017-04-12T01:24:39.142Z,0
2017-04-12T01:25:39.077Z,0
2017-04-12T01:26:39.055Z,0
2017-04-12T01:27:39.035Z,0
2017-04-12T01:28:39.022Z,0
2017-04-12T01:29:38.994Z,0
2017-04-12T01:30:39.015Z,0
2017-04-12T01:31:38.955Z,0
2017-04-12T01:32:38.637Z,0
2017-04-12T01:33:38.922Z,0
2017-04-12T01:34:38.891Z,0
2017-04-12T01:35:38.876Z,0
2017-04-12T01:36:38.857Z,0
2017-04-12T01:37:38.542Z,0
2017-04-12T01:38:38.818Z,0
2017-04-12T01:39:38.196Z,0
2017-04-12T01:40:38.789Z,0
2017-04-12T01:41:38.758Z,0
2017-04-12T01:42:38.433Z,0
2017-04-12T01:43:38.717Z,0
2017-04-12T01:44:38.398Z,0
2017-04-12T01:45:38.682Z,0
2017-04-12T01:46:38.662Z,0
2017-04-12T01:47:38.647Z,0
2017-04-12T01:48:38.621Z,0
2017-04-12T01:49:38.610Z,0
2017-04-12T01:50:38.594Z,0
2017-04-12T01:51:38.266Z,0
2017-04-12T01:52:38.551Z,0
2017-04-12T01:53:38.530Z,0
2017-04-12T01:54:38.507Z,0
2017-04-12T01:55:38.491Z,0
2017-04-12T01:56:38.518Z,0
2017-04-12T01:57:38.447Z,0
2017-04-12T01:58:38.429Z,0
2017-04-12T01:59:38.410Z,0
2017-04-12T02:00:38.402Z,0
2017-04-12T02:01:38.375Z,0
2017-04-12T02:02:38.353Z,0
2017-04-12T02:03:38.552Z,0
2017-04-12T02:04:38.324Z,0
2017-04-12T02:05:38.301Z,0
2017-04-12T02:06:38.274Z,0
2017-04-12T02:07:38.259Z,0
2017-04-12T02:08:38.232Z,0
2017-04-12T02:09:38.225Z,0
2017-04-12T02:10:38.194Z,0
2017-04-12T02:11:38.181Z,0
2017-04-12T02:12:38.359Z,0
2017-04-12T02:13:38.138Z,0
2017-04-12T02:14:38.120Z,0
2017-04-12T02:15:38.103Z,0
2017-04-12T02:16:38.085Z,0
2017-04-12T02:17:38.069Z,0
2017-04-12T02:18:38.038Z,0
2017-04-12T02:19:38.032Z,0
2017-04-12T02:20:38.003Z,0
2017-04-12T02:21:37.987Z,0
2017-04-12T02:22:37.965Z,0
2017-04-12T02:23:37.950Z,0
2017-04-12T02:24:37.928Z,0
2017-04-12T02:25:37.908Z,0
2017-04-12T02:26:37.930Z,0
2017-04-12T02:27:37.863Z,0
2017-04-12T02:28:37.550Z,0
2017-04-12T02:29:37.827Z,0
2017-04-12T02:30:37.809Z,0
2017-04-12T02:31:37.797Z,0
2017-04-12T02:32:37.775Z,0
2017-04-12T02:33:37.752Z,0
2017-04-12T02:34:37.793Z,0
2017-04-12T02:35:37.715Z,0
2017-04-12T02:36:37.698Z,0
2017-04-12T02:37:37.897Z,0
2017-04-12T02:38:37.660Z,0
2017-04-12T02:39:37.640Z,0
2017-04-12T02:40:37.617Z,0
2017-04-12T02:41:37.799Z,0
2017-04-12T02:42:37.588Z,0
2017-04-12T02:43:37.562Z,0
2017-04-12T02:44:37.545Z,0
2017-04-12T02:45:37.528Z,0
2017-04-12T02:46:37.703Z,0
2017-04-12T02:47:37.489Z,0
2017-04-12T02:48:37.465Z,0
2017-04-12T02:49:37.445Z,0
2017-04-12T02:50:37.427Z,0
2017-04-12T02:51:37.408Z,0
2017-04-12T02:52:37.084Z,0
2017-04-12T02:53:37.060Z,0
2017-04-12T02:54:37.347Z,0
2017-04-12T02:55:37.327Z,0
2017-04-12T02:56:37.316Z,0
2017-04-12T02:57:36.982Z,0
2017-04-12T02:58:37.263Z,0
2017-04-12T02:59:37.247Z,0
2017-04-12T03:00:37.225Z,0
2017-04-12T03:01:37.207Z,0
2017-04-12T03:02:37.195Z,0
2017-04-12T03:03:37.174Z,0
2017-04-12T03:04:37.154Z,0
2017-04-12T03:05:37.134Z,0
2017-04-12T03:06:37.123Z,0
2017-04-12T03:07:50.172Z,0
2017-04-12T03:08:37.082Z,0
2017-04-12T03:09:37.059Z,0
2017-04-12T03:10:36.739Z,0
2017-04-12T03:11:37.245Z,0
2017-04-12T03:12:36.998Z,0
2017-04-12T03:13:36.983Z,0
2017-04-12T03:14:36.961Z,0
2017-04-12T03:15:36.942Z,0
2017-04-12T03:16:50.565Z,0
2017-04-12T03:17:36.605Z,0
2017-04-12T03:18:36.885Z,0
2017-04-12T03:19:36.869Z,0
2017-04-12T03:20:37.053Z,0
2017-04-12T03:21:36.828Z,0
2017-04-12T03:22:36.811Z,0
2017-04-12T03:23:36.791Z,0
2017-04-12T03:24:36.467Z,0
2017-04-12T03:25:36.453Z,0
2017-04-12T03:26:36.441Z,0
2017-04-12T03:27:36.727Z,0
2017-04-12T03:28:36.699Z,0
2017-04-12T03:29:36.678Z,0
2017-04-12T03:30:36.657Z,0
2017-04-12T03:31:36.640Z,0
2017-04-12T03:32:36.623Z,0
2017-04-12T03:33:36.338Z,0
2017-04-12T03:34:36.579Z,0
2017-04-12T03:35:36.563Z,0
2017-04-12T03:36:36.544Z,0
2017-04-12T03:37:36.259Z,0
2017-04-12T03:38:36.503Z,0
2017-04-12T03:39:36.187Z,0
2017-04-12T03:40:36.471Z,0
2017-04-12T03:41:36.448Z,0
2017-04-12T03:42:36.427Z,0
2017-04-12T03:43:36.418Z,0
2017-04-12T03:44:36.394Z,0
2017-04-12T03:45:36.578Z,0
2017-04-12T03:46:36.350Z,0
2017-04-12T03:47:36.033Z,0
2017-04-12T03:48:36.319Z,0
2017-04-12T03:49:36.298Z,0
2017-04-12T03:50:36.269Z,0
2017-04-12T03:51:36.265Z,0
2017-04-12T03:52:36.241Z,0
2017-04-12T03:53:36.218Z,0
2017-04-12T03:54:36.402Z,0
2017-04-12T03:55:49.816Z,0
2017-04-12T03:56:36.161Z,0
2017-04-12T03:57:36.178Z,0
2017-04-12T03:58:36.128Z,0
2017-04-12T03:59:36.116Z,0
2017-04-12T04:00:36.087Z,0
2017-04-12T04:01:36.069Z,0
2017-04-12T04:02:35.754Z,0
2017-04-12T04:03:36.036Z,0
2017-04-12T04:04:36.014Z,0
2017-04-12T04:05:35.994Z,0
2017-04-12T04:06:35.972Z,0
2017-04-12T04:07:35.957Z,0
2017-04-12T04:08:35.948Z,0
2017-04-12T04:09:35.918Z,0
2017-04-12T04:10:35.896Z,0
2017-04-12T04:11:35.882Z,0
2017-04-12T04:12:35.857Z,0
2017-04-12T04:13:35.841Z,0
2017-04-12T04:14:35.822Z,0
2017-04-12T04:15:35.810Z,0
2017-04-12T04:16:35.789Z,0
2017-04-12T04:17:35.761Z,0
2017-04-12T04:18:35.744Z,0
2017-04-12T04:19:35.738Z,0
2017-04-12T04:20:35.719Z,0
2017-04-12T04:21:35.698Z,5
2017-04-12T04:22:35.682Z,5
2017-04-12T04:23:35.660Z,5
2017-04-12T04:24:35.845Z,5
2017-04-12T04:25:49.005Z,5
2017-04-12T04:26:35.598Z,10
2017-04-12T04:27:35.583Z,10
2017-04-12T04:28:35.771Z,10
2017-04-12T04:29:35.250Z,10
2017-04-12T04:30:35.528Z,15
2017-04-12T04:31:35.527Z,15
2017-04-12T04:32:35.483Z,20
2017-04-12T04:33:35.475Z,20
2017-04-12T04:34:35.449Z,25
2017-04-12T04:35:35.133Z,30
2017-04-12T04:36:35.418Z,35
2017-04-12T04:37:35.093Z,40
2017-04-12T04:38:35.373Z,40
2017-04-12T04:39:35.363Z,40
2017-04-12T04:40:35.338Z,45
2017-04-12T04:41:35.330Z,50
2017-04-12T04:42:35.305Z,55
2017-04-12T04:43:35.292Z,60
2017-04-12T04:44:35.278Z,65
2017-04-12T04:45:35.256Z,70
2017-04-12T04:46:35.233Z,70
2017-04-12T04:47:35.215Z,75
2017-04-12T04:48:35.202Z,80
2017-04-12T04:49:35.187Z,85
2017-04-12T04:50:35.150Z,95
2017-04-12T04:51:35.174Z,100
2017-04-12T04:52:35.123Z,105
2017-04-12T04:53:35.104Z,110
2017-04-12T04:54:48.730Z,115
2017-04-12T04:55:35.106Z,120
2017-04-12T04:56:35.050Z,125
2017-04-12T04:57:34.964Z,130
2017-04-12T04:58:35.009Z,140
2017-04-12T04:59:34.895Z,145
2017-04-12T05:00:34.978Z,155
2017-04-12T05:01:34.964Z,165
2017-04-12T05:02:34.939Z,170
2017-04-12T05:03:35.125Z,175
2017-04-12T05:04:35.114Z,185
2017-04-12T05:05:34.893Z,195
2017-04-12T05:06:34.861Z,195
2017-04-12T05:07:34.851Z,200
2017-04-12T05:08:34.831Z,205
2017-04-12T05:09:34.810Z,210
2017-04-12T05:10:34.796Z,210
2017-04-12T05:11:34.777Z,215
2017-04-12T05:12:34.763Z,225
2017-04-12T05:13:34.745Z,235
2017-04-12T05:14:34.729Z,250
2017-04-12T05:15:34.716Z,260
2017-04-12T05:16:34.690Z,275
2017-04-12T05:17:34.667Z,290
2017-04-12T05:18:34.650Z,300
2017-04-12T05:19:34.632Z,305
2017-04-12T05:20:34.623Z,310
2017-04-12T05:21:34.602Z,310
2017-04-12T05:22:34.588Z,315
2017-04-12T05:23:34.566Z,315
2017-04-12T05:24:34.555Z,320
2017-04-12T05:25:34.537Z,320
2017-04-12T05:26:34.512Z,320
2017-04-12T05:27:34.499Z,315
2017-04-12T05:28:34.479Z,305
2017-04-12T05:29:34.461Z,295
2017-04-12T05:30:34.444Z,295
2017-04-12T05:31:34.426Z,290
2017-04-12T05:32:34.405Z,295
2017-04-12T05:33:34.596Z,300
2017-04-12T05:34:35.011Z,315
2017-04-12T05:35:34.358Z,310
2017-04-12T05:36:34.336Z,315
2017-04-12T05:37:34.320Z,320
2017-04-12T05:38:34.303Z,330
2017-04-12T05:39:34.322Z,340
2017-04-12T05:40:34.266Z,355
2017-04-12T05:41:34.246Z,370
2017-04-12T05:42:34.228Z,385
2017-04-12T05:43:34.204Z,395
2017-04-12T05:44:34.192Z,415
2017-04-12T05:45:34.175Z,425
2017-04-12T05:46:34.154Z,440
2017-04-12T05:47:34.140Z,475
2017-04-12T05:48:34.120Z,500
2017-04-12T05:49:34.109Z,550
2017-04-12T05:50:34.085Z,555
2017-04-12T05:51:34.069Z,570
2017-04-12T05:52:34.048Z,600
2017-04-12T05:53:33.731Z,660
2017-04-12T05:54:34.020Z,715
2017-04-12T05:55:33.997Z,715
2017-04-12T05:56:33.974Z,730
2017-04-12T05:57:33.965Z,730
2017-04-12T05:58:33.944Z,740
2017-04-12T05:59:33.927Z,805
2017-04-12T06:00:33.906Z,875
2017-04-12T06:01:33.889Z,905
2017-04-12T06:02:33.867Z,885
2017-04-12T06:03:33.859Z,805
2017-04-12T06:04:33.738Z,805
2017-04-12T06:05:33.528Z,775
2017-04-12T06:06:33.854Z,770
2017-04-12T06:07:33.783Z,795
2017-04-12T06:08:33.762Z,775
2017-04-12T06:09:33.747Z,795
2017-04-12T06:10:33.729Z,865
2017-04-12T06:11:33.715Z,940
2017-04-12T06:12:33.700Z,980
2017-04-12T06:13:33.382Z,950
2017-04-12T06:14:33.666Z,920
2017-04-12T06:15:33.645Z,900
2017-04-12T06:16:33.623Z,925
2017-04-12T06:17:33.619Z,935
2017-04-12T06:18:33.605Z,990
2017-04-12T06:19:33.586Z,1115
2017-04-12T06:20:33.562Z,1135
2017-04-12T06:21:33.596Z,1120
2017-04-12T06:22:33.526Z,1145
2017-04-12T06:23:33.508Z,1185
2017-04-12T06:24:33.492Z,1190
2017-04-12T06:25:33.474Z,1210
2017-04-12T06:26:33.462Z,1185
2017-04-12T06:27:33.141Z,1230
2017-04-12T06:28:33.432Z,1260
2017-04-12T06:29:33.461Z,1240
2017-04-12T06:30:33.401Z,1295
2017-04-12T06:31:33.373Z,1185
2017-04-12T06:32:33.355Z,1110
2017-04-12T06:33:33.346Z,1305
2017-04-12T06:34:33.331Z,1445
2017-04-12T06:35:32.708Z,1455
2017-04-12T06:36:32.993Z,1480
2017-04-12T06:37:33.284Z,1465
2017-04-12T06:38:32.964Z,1580
2017-04-12T06:39:33.247Z,1620
2017-04-12T06:40:33.233Z,1435
2017-04-12T06:41:33.212Z,1440
2017-04-12T06:42:33.205Z,1390
2017-04-12T06:43:33.193Z,1390
2017-04-12T06:44:33.178Z,1320
2017-04-12T06:45:33.154Z,1290
2017-04-12T06:46:33.144Z,1375
2017-04-12T06:47:33.127Z,1430
2017-04-12T06:48:32.808Z,1460
2017-04-12T06:49:33.093Z,1490
2017-04-12T06:50:33.075Z,1640
2017-04-12T06:51:32.752Z,1520
2017-04-12T06:52:33.041Z,1585
2017-04-12T06:53:33.028Z,1705
2017-04-12T06:54:33.006Z,1630
2017-04-12T06:55:32.997Z,1700
2017-04-12T06:56:32.975Z,1850
2017-04-12T06:57:33.008Z,1795
2017-04-12T06:58:32.951Z,1775
2017-04-12T06:59:32.931Z,1725
2017-04-12T07:00:32.917Z,1815
2017-04-12T07:01:32.894Z,1945
2017-04-12T07:02:32.883Z,1880
2017-04-12T07:03:32.868Z,1895
2017-04-12T07:04:32.555Z,1855
2017-04-12T07:05:32.856Z,1690
2017-04-12T07:06:32.823Z,1900
2017-04-12T07:07:32.804Z,2050
2017-04-12T07:08:32.793Z,1970
2017-04-12T07:09:32.463Z,1970
2017-04-12T07:10:32.755Z,2030
2017-04-12T07:11:32.440Z,1995
2017-04-12T07:12:32.734Z,1790
2017-04-12T07:13:32.724Z,1490
2017-04-12T07:14:32.690Z,1505
2017-04-12T07:15:32.684Z,1645
2017-04-12T07:16:32.659Z,1800
2017-04-12T07:17:32.641Z,1655
2017-04-12T07:18:32.624Z,1885
2017-04-12T07:19:32.311Z,2005
2017-04-12T07:20:32.599Z,2065
2017-04-12T07:21:32.576Z,2240
2017-04-12T07:22:32.263Z,2165
2017-04-12T07:23:32.542Z,1985
2017-04-12T07:24:32.568Z,2240
2017-04-12T07:25:32.520Z,2475
2017-04-12T07:26:32.505Z,2490
2017-04-12T07:27:32.490Z,2275
2017-04-12T07:28:32.474Z,1910
2017-04-12T07:29:32.459Z,2065
2017-04-12T07:30:32.450Z,2350
2017-04-12T07:31:32.427Z,2830
2017-04-12T07:32:32.411Z,2500
2017-04-12T07:33:32.097Z,2730
2017-04-12T07:34:32.393Z,2690
2017-04-12T07:35:32.376Z,2305
2017-04-12T07:36:32.357Z,2095
2017-04-12T07:37:32.337Z,2240
2017-04-12T07:38:32.030Z,2210
2017-04-12T07:39:32.016Z,2330
2017-04-12T07:40:31.999Z,2695
2017-04-12T07:41:32.289Z,2605
2017-04-12T07:42:31.975Z,2195
2017-04-12T07:43:31.964Z,2175
2017-04-12T07:44:31.946Z,2350
2017-04-12T07:45:31.629Z,2370
2017-04-12T07:46:32.218Z,2230
2017-04-12T07:47:31.607Z,2380
2017-04-12T07:48:31.592Z,2215
2017-04-12T07:49:32.177Z,1950
2017-04-12T07:50:32.168Z,1975
2017-04-12T07:51:31.840Z,2050
2017-04-12T07:52:31.831Z,2230
2017-04-12T07:53:32.118Z,2130
2017-04-12T07:54:32.104Z,2475
2017-04-12T07:55:31.791Z,2550
2017-04-12T07:56:32.082Z,2085
2017-04-12T07:57:31.455Z,2315
2017-04-12T07:58:32.081Z,2485
2017-04-12T07:59:31.431Z,2500
2017-04-12T08:00:31.711Z,2745
2017-04-12T08:01:31.699Z,2275
2017-04-12T08:02:31.995Z,1710
2017-04-12T08:03:31.676Z,1745
2017-04-12T08:04:31.973Z,2140
2017-04-12T08:05:31.644Z,2390
2017-04-12T08:06:31.938Z,2785
2017-04-12T08:07:31.911Z,2765
2017-04-12T08:08:31.898Z,2620
2017-04-12T08:09:31.884Z,2550
2017-04-12T08:10:31.867Z,2775
2017-04-12T08:11:31.854Z,2585
2017-04-12T08:12:31.593Z,2620
2017-04-12T08:13:31.225Z,2470
2017-04-12T08:14:31.814Z,2270
2017-04-12T08:15:31.201Z,2165
2017-04-12T08:16:31.788Z,3015
2017-04-12T08:17:31.475Z,2655
2017-04-12T08:18:31.759Z,2415
2017-04-12T08:19:31.737Z,2745
2017-04-12T08:20:31.731Z,2655
2017-04-12T08:21:31.756Z,2550
2017-04-12T08:22:31.396Z,2650
2017-04-12T08:23:31.685Z,2720
2017-04-12T08:24:30.765Z,2825
2017-04-12T08:25:31.655Z,2700
2017-04-12T08:26:31.649Z,2595
2017-04-12T08:27:31.635Z,2550
2017-04-12T08:28:31.623Z,2580
2017-04-12T08:29:31.297Z,2695
2017-04-12T08:30:31.292Z,2595
2017-04-12T08:31:31.272Z,2640
2017-04-12T08:32:31.557Z,2885
2017-04-12T08:33:31.243Z,2795
2017-04-12T08:34:31.530Z,2490
2017-04-12T08:35:31.507Z,2735
2017-04-12T08:36:31.496Z,2805
2017-04-12T08:37:31.481Z,2970
2017-04-12T08:38:31.173Z,3130
2017-04-12T08:39:30.553Z,3035
2017-04-12T08:40:31.182Z,3390
2017-04-12T08:41:31.136Z,3220
2017-04-12T08:42:31.118Z,3110
2017-04-12T08:43:31.407Z,3465
2017-04-12T08:44:31.079Z,3810
2017-04-12T08:45:31.373Z,3360
2017-04-12T08:46:31.354Z,3265
2017-04-12T08:47:31.351Z,3455
2017-04-12T08:48:31.328Z,3405
2017-04-12T08:49:31.332Z,3140
2017-04-12T08:50:31.046Z,3165
2017-04-12T08:51:30.987Z,3115
2017-04-12T08:52:31.277Z,3055
2017-04-12T08:53:31.261Z,3115
2017-04-12T08:54:31.253Z,3250
2017-04-12T08:55:31.239Z,2820
2017-04-12T08:56:31.225Z,2650
2017-04-12T08:57:30.912Z,2815
2017-04-12T08:58:31.190Z,3150
2017-04-12T08:59:30.883Z,3165
2017-04-12T09:00:30.865Z,2850
2017-04-12T09:01:31.156Z,2650
2017-04-12T09:02:30.838Z,2575
2017-04-12T09:03:30.820Z,2585
2017-04-12T09:04:31.116Z,2945
2017-04-12T09:05:31.097Z,2960
2017-04-12T09:06:31.088Z,2630
2017-04-12T09:07:31.075Z,2325
2017-04-12T09:08:31.050Z,2355
2017-04-12T09:09:31.045Z,2455
2017-04-12T09:10:31.027Z,2570
2017-04-12T09:11:30.717Z,2575
2017-04-12T09:12:30.698Z,2705
2017-04-12T09:13:30.985Z,2775
2017-04-12T09:14:30.670Z,2720
2017-04-12T09:15:30.959Z,2655
2017-04-12T09:16:30.950Z,2715
2017-04-12T09:17:30.627Z,2575
2017-04-12T09:18:30.911Z,2680
2017-04-12T09:19:30.602Z,2870
2017-04-12T09:20:30.888Z,2865
2017-04-12T09:21:30.869Z,2990
2017-04-12T09:22:30.856Z,3080
2017-04-12T09:23:30.541Z,3395
2017-04-12T09:24:30.526Z,3325
2017-04-12T09:25:30.514Z,3300
2017-04-12T09:26:30.498Z,3345
2017-04-12T09:27:30.177Z,3350
2017-04-12T09:28:30.474Z,3480
2017-04-12T09:29:30.450Z,3445
2017-04-12T09:30:30.742Z,3275
2017-04-12T09:31:30.118Z,3330
2017-04-12T09:32:30.110Z,3480
2017-04-12T09:33:30.097Z,3595
2017-04-12T09:34:30.686Z,3310
2017-04-12T09:35:30.062Z,3350
2017-04-12T09:36:30.654Z,3610
2017-04-12T09:37:30.041Z,3730
2017-04-12T09:38:30.628Z,3775
2017-04-12T09:39:30.311Z,3590
2017-04-12T09:40:30.294Z,3550
2017-04-12T09:41:29.981Z,3305
2017-04-12T09:42:30.580Z,3185
2017-04-12T09:43:30.555Z,3200
2017-04-12T09:44:30.244Z,3610
2017-04-12T09:45:30.224Z,4085
2017-04-12T09:46:30.519Z,3920
2017-04-12T09:47:30.199Z,3460
2017-04-12T09:48:30.185Z,3510
2017-04-12T09:49:30.176Z,3560
2017-04-12T09:50:30.163Z,3545
2017-04-12T09:51:30.449Z,3550
2017-04-12T09:52:30.430Z,3715
2017-04-12T09:53:30.416Z,3825
2017-04-12T09:54:30.402Z,3645
2017-04-12T09:55:30.394Z,3790
2017-04-12T09:56:30.076Z,3960
2017-04-12T09:57:30.366Z,3855
2017-04-12T09:58:29.745Z,3685
2017-04-12T09:59:30.040Z,3625
2017-04-12T10:00:30.323Z,3735
2017-04-12T10:01:30.315Z,3445
2017-04-12T10:02:30.293Z,3595
2017-04-12T10:03:30.282Z,3715
2017-04-12T10:04:29.359Z,3730
2017-04-12T10:05:29.950Z,3410
2017-04-12T10:06:30.240Z,3170
2017-04-12T10:07:29.922Z,3240
2017-04-12T10:08:30.212Z,3250
2017-04-12T10:09:30.196Z,3165
2017-04-12T10:10:30.181Z,3110
2017-04-12T10:11:30.171Z,3060
2017-04-12T10:12:29.862Z,2900
2017-04-12T10:13:29.842Z,2815
2017-04-12T10:14:29.562Z,2815
2017-04-12T10:15:29.809Z,2775
2017-04-12T10:16:30.095Z,2710
2017-04-12T10:17:30.091Z,2780
2017-04-12T10:18:30.067Z,2890
2017-04-12T10:19:30.093Z,3025
2017-04-12T10:20:30.040Z,3025
2017-04-12T10:21:29.424Z,3050
2017-04-12T10:22:29.752Z,3100
2017-04-12T10:23:29.696Z,3070
2017-04-12T10:24:29.977Z,3125
2017-04-12T10:25:29.655Z,3140
2017-04-12T10:26:29.948Z,3165
2017-04-12T10:27:29.933Z,3025
2017-04-12T10:28:29.920Z,3125
2017-04-12T10:29:29.896Z,3270
2017-04-12T10:30:29.582Z,3340
2017-04-12T10:31:29.572Z,3195
2017-04-12T10:32:29.551Z,3080
2017-04-12T10:33:29.835Z,2990
2017-04-12T10:34:29.838Z,2860
2017-04-12T10:35:29.811Z,2810
2017-04-12T10:36:29.492Z,2760
2017-04-12T10:37:29.507Z,2795
2017-04-12T10:38:29.764Z,2935
2017-04-12T10:39:29.452Z,2965
2017-04-12T10:40:29.147Z,3035
2017-04-12T10:41:29.131Z,3030
2017-04-12T10:42:29.413Z,3065
2017-04-12T10:43:29.701Z,3010
2017-04-12T10:44:29.382Z,2820
2017-04-12T10:45:29.676Z,2835
2017-04-12T10:46:29.060Z,2690
2017-04-12T10:47:29.652Z,2560
2017-04-12T10:48:29.629Z,2935
2017-04-12T10:49:29.619Z,3005
2017-04-12T10:50:29.609Z,3055
2017-04-12T10:51:29.591Z,3260
2017-04-12T10:52:28.981Z,3270
2017-04-12T10:53:29.259Z,3440
2017-04-12T10:54:29.557Z,3110
2017-04-12T10:55:29.540Z,3175
2017-04-12T10:56:29.528Z,3320
2017-04-12T10:57:29.509Z,3095
2017-04-12T10:58:29.205Z,3080
2017-04-12T10:59:28.581Z,3335
2017-04-12T11:00:29.172Z,3475
2017-04-12T11:01:28.857Z,3430
2017-04-12T11:02:29.145Z,3400
2017-04-12T11:03:29.140Z,3550
2017-04-12T11:04:29.118Z,3965
2017-04-12T11:05:29.418Z,3730
2017-04-12T11:06:29.395Z,4010
2017-04-12T11:07:28.480Z,4410
2017-04-12T11:08:29.075Z,4435
2017-04-12T11:09:29.056Z,3410
2017-04-12T11:10:29.350Z,2475
2017-04-12T11:11:28.735Z,2215
2017-04-12T11:12:29.023Z,2155
2017-04-12T11:13:29.313Z,2180
2017-04-12T11:14:28.992Z,2180
2017-04-12T11:15:29.292Z,2195
2017-04-12T11:16:29.317Z,2180
2017-04-12T11:17:29.264Z,2365
2017-04-12T11:18:29.255Z,2980
2017-04-12T11:19:28.639Z,4175
2017-04-12T11:20:28.342Z,4060
2017-04-12T11:21:29.216Z,3750
2017-04-12T11:22:29.201Z,3975
2017-04-12T11:23:28.890Z,3795
2017-04-12T11:24:29.173Z,3530
2017-04-12T11:25:28.862Z,3480
2017-04-12T11:26:29.147Z,3435
2017-04-12T11:27:28.839Z,3320
2017-04-12T11:28:28.825Z,3155
2017-04-12T11:29:28.817Z,3510
2017-04-12T11:30:29.108Z,3380
2017-04-12T11:31:28.794Z,3570
2017-04-12T11:32:29.079Z,3920
2017-04-12T11:33:28.764Z,3790
2017-04-12T11:34:28.760Z,3855
2017-04-12T11:35:28.747Z,4040
2017-04-12T11:36:28.468Z,3680
2017-04-12T11:37:29.022Z,3465
2017-04-12T11:38:29.011Z,3595
2017-04-12T11:39:28.989Z,3620
2017-04-12T11:40:28.374Z,3620
2017-04-12T11:41:28.969Z,4005
2017-04-12T11:42:28.959Z,4245
2017-04-12T11:43:28.951Z,4060
2017-04-12T11:44:28.930Z,3630
2017-04-12T11:45:28.923Z,3420
2017-04-12T11:46:28.910Z,3135
2017-04-12T11:47:28.295Z,3510
2017-04-12T11:48:28.275Z,3440
2017-04-12T11:49:28.569Z,3695
2017-04-12T11:50:28.559Z,3945
2017-04-12T11:51:28.851Z,3750
2017-04-12T11:52:28.531Z,3715
2017-04-12T11:53:28.519Z,3660
2017-04-12T11:54:28.508Z,3555
2017-04-12T11:55:28.798Z,3495
2017-04-12T11:56:28.488Z,3800
2017-04-12T11:57:28.474Z,3905
2017-04-12T11:58:28.464Z,3785
2017-04-12T11:59:28.755Z,3840
2017-04-12T12:00:28.141Z,3710
2017-04-12T12:01:28.434Z,3925
2017-04-12T12:02:28.715Z,4140
2017-04-12T12:03:28.107Z,3770
2017-04-12T12:04:28.091Z,3575
2017-04-12T12:05:28.383Z,3645
2017-04-12T12:06:28.374Z,3440
2017-04-12T12:07:28.414Z,3490
2017-04-12T12:08:28.755Z,3710
2017-04-12T12:09:28.644Z,3645
2017-04-12T12:10:28.638Z,3540
2017-04-12T12:11:28.319Z,3320
2017-04-12T12:12:28.611Z,3460
2017-04-12T12:13:28.296Z,3670
2017-04-12T12:14:27.979Z,3600
2017-04-12T12:15:28.587Z,3705
2017-04-12T12:16:28.567Z,3860
2017-04-12T12:17:28.561Z,3590
2017-04-12T12:18:27.938Z,3390
2017-04-12T12:19:28.532Z,3300
2017-04-12T12:20:28.522Z,4310
2017-04-12T12:21:28.507Z,4350
2017-04-12T12:22:28.500Z,4330
2017-04-12T12:23:28.188Z,3880
2017-04-12T12:24:28.183Z,4195
2017-04-12T12:25:28.472Z,4190
2017-04-12T12:26:28.459Z,3460
2017-04-12T12:27:28.141Z,3320
2017-04-12T12:28:28.134Z,3485
2017-04-12T12:29:27.816Z,4315
2017-04-12T12:30:28.414Z,4130
2017-04-12T12:31:28.399Z,3295
2017-04-12T12:32:28.387Z,3060
2017-04-12T12:33:28.385Z,3210
2017-04-12T12:34:28.373Z,3315
2017-04-12T12:35:27.755Z,3610
2017-04-12T12:36:28.352Z,4425
2017-04-12T12:37:28.345Z,4425
2017-04-12T12:38:28.033Z,3390
2017-04-12T12:39:28.347Z,3085
2017-04-12T12:40:28.316Z,3950
2017-04-12T12:41:28.309Z,4615
2017-04-12T12:42:28.288Z,4405
2017-04-12T12:43:27.981Z,4555
2017-04-12T12:44:27.968Z,4105
2017-04-12T12:45:27.356Z,3545
2017-04-12T12:46:27.942Z,3815
2017-04-12T12:47:28.241Z,4325
2017-04-12T12:48:28.227Z,3960
2017-04-12T12:49:27.917Z,3835
2017-04-12T12:50:27.905Z,3650
2017-04-12T12:51:27.598Z,3535
2017-04-12T12:52:27.889Z,3380
2017-04-12T12:53:28.178Z,3505
2017-04-12T12:54:27.858Z,3540
2017-04-12T12:55:28.155Z,3555
2017-04-12T12:56:28.145Z,3765
2017-04-12T12:57:27.862Z,4180
2017-04-12T12:58:28.124Z,4390
2017-04-12T12:59:28.111Z,4070
2017-04-12T13:00:28.100Z,3640
2017-04-12T13:01:28.086Z,3795
2017-04-12T13:02:28.074Z,4270
2017-04-12T13:03:28.066Z,4260
2017-04-12T13:04:28.053Z,4290
2017-04-12T13:05:28.039Z,4015
2017-04-12T13:06:28.039Z,3920
2017-04-12T13:07:28.045Z,4055
2017-04-12T13:08:28.014Z,4025
2017-04-12T13:09:27.993Z,3800
2017-04-12T13:10:27.986Z,3670
2017-04-12T13:11:28.009Z,3835
2017-04-12T13:12:27.966Z,3945
2017-04-12T13:13:27.945Z,4040
2017-04-12T13:14:27.937Z,3900
2017-04-12T13:15:27.925Z,3545
2017-04-12T13:16:27.920Z,3370
2017-04-12T13:17:27.903Z,3300
2017-04-12T13:18:27.889Z,3565
2017-04-12T13:19:27.881Z,3630
2017-04-12T13:20:27.865Z,3565
2017-04-12T13:21:27.851Z,3560
2017-04-12T13:22:27.839Z,3455
2017-04-12T13:23:27.832Z,3135
2017-04-12T13:24:27.808Z,3015
2017-04-12T13:25:27.839Z,3220
2017-04-12T13:26:27.790Z,3455
2017-04-12T13:27:27.785Z,3645
2017-04-12T13:28:27.772Z,3440
2017-04-12T13:29:27.753Z,2820
2017-04-12T13:30:27.748Z,2835
2017-04-12T13:31:27.735Z,3350
2017-04-12T13:32:27.722Z,3730
2017-04-12T13:33:27.407Z,3550
2017-04-12T13:34:27.708Z,3285
2017-04-12T13:35:27.690Z,3210
2017-04-12T13:36:27.676Z,3295
2017-04-12T13:37:27.660Z,3290
2017-04-12T13:38:27.667Z,3515
2017-04-12T13:39:27.633Z,3210
2017-04-12T13:40:27.625Z,2740
2017-04-12T13:41:27.614Z,2605
2017-04-12T13:42:27.599Z,2590
2017-04-12T13:43:27.645Z,2765
2017-04-12T13:44:27.573Z,2945
2017-04-12T13:45:27.568Z,3255
2017-04-12T13:46:27.554Z,3300
2017-04-12T13:47:27.236Z,2980
2017-04-12T13:48:27.524Z,2820
2017-04-12T13:49:27.517Z,2650